Airport ID:KMHV
Update Time (UTC):25/06/2018 17:08
Wind Speed (Knots):4
Wind Direction (Magnetic):90
Temperature (°C):32
Dew Point (°C):8
Humidity (%):24
Altimeter (inHg):29.97
Density Altitude (Feet):5400
Visibility (Miles):10+
Clouds (Hundreds of feet):CLR
Present Weather:
METAR:METAR KMHV 251700Z AUTO VRB04KT 10SM CLR 31/08 A2997 RMK A01

The data displayed is for advisory purposes only and is not to be used for flight planning or operations.

This page is not automatically refreshed. Reload the page to see current data.